Time;durP1;ratioP1;P1;durP2;ratioP2;P2;SDS_P1;SDS_P2;PMS_P1;PMS_P2;Temp;Humidity;BMP_temperature;BMP_pressure;BME280_temperature;BME280_humidity;BME280_pressure;Samples;Min_cycle;Max_cycle;Signal;HPM_P1;HPM_P2
2022/06/09 00:00:27;;;;;;;3.65;2.70;;;;;;;19.30;67.05;100492.66;4991396;28;102311;-56
2022/06/09 00:03:00;;;;;;;3.30;3.00;;;;;;;19.28;66.94;100486.66;4994544;28;103926;-56
2022/06/09 00:05:31;;;;;;;4.07;3.15;;;;;;;19.29;66.88;100488.25;4994890;28;102279;-56
2022/06/09 00:07:58;;;;;;;3.28;2.80;;;;;;;19.28;66.87;100494.94;4994683;28;102445;-56
2022/06/09 00:10:31;;;;;;;4.05;3.20;;;;;;;19.28;66.88;100489.41;4995488;28;102613;-56
2022/06/09 00:13:01;;;;;;;4.70;2.80;;;;;;;19.28;67.05;100483.88;4994434;28;103859;-55
2022/06/09 00:15:28;;;;;;;2.55;2.33;;;;;;;19.28;66.86;100481.13;4987562;28;102218;-56
2022/06/09 00:17:57;;;;;;;4.80;3.28;;;;;;;19.29;66.81;100473.66;4985369;28;102545;-56
2022/06/09 00:20:23;;;;;;;3.65;3.00;;;;;;;19.27;66.74;100476.75;4993453;28;102873;-56
2022/06/09 00:22:50;;;;;;;5.30;2.72;;;;;;;19.28;66.52;100481.13;4982287;28;103913;-56
2022/06/09 00:25:17;;;;;;;4.35;2.90;;;;;;;19.27;66.91;100482.28;4994750;28;102076;-55
2022/06/09 00:27:45;;;;;;;4.32;2.90;;;;;;;19.27;66.38;100479.53;4988701;28;101914;-56
2022/06/09 00:30:15;;;;;;;4.20;2.80;;;;;;;19.29;66.76;100477.22;4987565;28;102097;-56
2022/06/09 00:32:42;;;;;;;3.05;2.75;;;;;;;19.28;66.81;100477.56;4993335;28;104408;-56
2022/06/09 00:35:09;;;;;;;4.20;3.05;;;;;;;19.28;67.00;100478.38;4982301;28;102144;-55
2022/06/09 00:37:36;;;;;;;3.55;3.03;;;;;;;19.28;66.73;100478.38;4983498;28;102199;-56
2022/06/09 00:40:04;;;;;;;3.42;2.78;;;;;;;19.28;66.67;100472.84;4994521;28;102255;-55
2022/06/09 00:42:32;;;;;;;3.83;3.13;;;;;;;19.28;66.56;100474.81;4990224;28;103887;-56
2022/06/09 00:45:26;;;;;;;4.15;3.00;;;;;;;19.28;66.88;100475.63;4992765;28;102468;-56
2022/06/09 00:48:01;;;;;;;3.65;2.60;;;;;;;19.28;66.87;100478.38;4993930;28;102369;-56
2022/06/09 00:50:29;;;;;;;3.33;3.03;;;;;;;19.29;66.56;100468.13;4992435;28;102697;-56
2022/06/09 00:53:01;;;;;;;3.40;3.10;;;;;;;19.28;67.13;100477.56;4993524;28;103907;-56
2022/06/09 00:55:33;;;;;;;3.50;2.78;;;;;;;19.29;66.91;100473.66;4982896;28;102629;-55
2022/06/09 00:58:05;;;;;;;6.13;3.03;;;;;;;19.29;66.95;100474.47;4993502;28;102227;-56
2022/06/09 01:00:46;;;;;;;3.38;3.08;;;;;;;19.28;66.54;100464.56;4980519;28;102327;-56
2022/06/09 01:03:15;;;;;;;3.17;2.45;;;;;;;19.27;66.61;100465.72;4977289;28;108572;-56
2022/06/09 01:05:43;;;;;;;3.63;2.72;;;;;;;19.27;66.82;100465.72;4994891;28;102234;-56
2022/06/09 01:08:13;;;;;;;4.15;2.80;;;;;;;19.26;66.94;100464.13;4994491;28;102024;-56
2022/06/09 01:10:40;;;;;;;5.20;2.70;;;;;;;19.27;66.83;100471.25;4994961;28;102536;-56
2022/06/09 01:13:07;;;;;;;4.07;2.83;;;;;;;19.26;66.83;100464.13;4992163;28;104041;-55
2022/06/09 01:15:45;;;;;;;3.35;2.80;;;;;;;19.26;66.68;100464.13;4992829;28;101971;-56
2022/06/09 01:18:27;;;;;;;3.28;2.90;;;;;;;19.27;66.91;100462.97;4985475;28;102257;-55
2022/06/09 01:21:02;;;;;;;4.45;2.95;;;;;;;19.26;67.00;100461.38;4987310;28;102444;-56
2022/06/09 01:24:08;;;;;;;3.17;2.88;;;;;;;19.27;66.89;100465.72;4974101;28;103991;-55
2022/06/09 01:27:10;;;;;;;4.63;3.37;;;;;;;19.26;67.17;100466.88;4980351;28;102425;-55
2022/06/09 01:29:49;;;;;;;3.25;2.90;;;;;;;19.27;66.75;100464.94;4980838;28;102108;-56
2022/06/09 01:32:24;;;;;;;4.32;3.42;;;;;;;19.26;67.28;100455.84;4975439;28;102369;-56
2022/06/09 01:35:05;;;;;;;3.70;2.88;;;;;;;19.26;67.09;100453.09;4984869;28;104105;-56
2022/06/09 01:37:36;;;;;;;3.60;2.65;;;;;;;19.26;67.31;100447.56;4995164;28;102265;-56
2022/06/09 01:40:07;;;;;;;3.50;2.88;;;;;;;19.26;67.17;100452.25;4990448;28;102663;-56
2022/06/09 01:42:36;;;;;;;3.13;2.85;;;;;;;19.26;66.90;100453.09;4990964;28;102486;-56
2022/06/09 01:45:08;;;;;;;4.53;3.33;;;;;;;19.26;66.84;100442.06;4981975;28;104246;-55
2022/06/09 01:47:43;;;;;;;3.75;3.08;;;;;;;19.25;67.22;100445.94;4985199;28;102553;-56
2022/06/09 01:50:16;;;;;;;4.13;3.15;;;;;;;19.25;67.07;100440.41;4985733;28;102142;-56
2022/06/09 01:52:45;;;;;;;3.00;2.70;;;;;;;19.26;67.01;100446.72;4982074;28;102892;-56
2022/06/09 01:55:17;;;;;;;3.03;2.72;;;;;;;19.25;67.17;100451.44;4980633;28;104028;-55
2022/06/09 01:57:48;;;;;;;4.97;3.17;;;;;;;19.25;67.24;100451.44;4987376;28;102384;-55
2022/06/09 02:00:19;;;;;;;4.13;3.10;;;;;;;19.25;67.22;100456.97;4979701;28;102219;-56
2022/06/09 02:02:51;;;;;;;39.65;4.10;;;;;;;19.26;66.87;100453.09;4995194;28;102011;-55
2022/06/09 02:05:21;;;;;;;4.13;3.08;;;;;;;19.26;67.16;100452.25;4973584;28;103936;-55
2022/06/09 02:07:50;;;;;;;4.18;3.05;;;;;;;19.26;67.10;100453.09;4988911;28;102323;-56
2022/06/09 02:10:22;;;;;;;3.63;3.13;;;;;;;19.25;67.16;100451.44;4977822;28;102460;-55
2022/06/09 02:12:50;;;;;;;4.82;3.03;;;;;;;19.25;66.88;100454.22;4986695;28;102206;-55
2022/06/09 02:15:26;;;;;;;4.55;3.05;;;;;;;19.26;66.96;100455.84;4986811;28;103918;-55
2022/06/09 02:17:55;;;;;;;4.65;3.40;;;;;;;19.24;67.45;100455.38;4990178;28;102416;-55
2022/06/09 02:20:24;;;;;;;3.10;2.80;;;;;;;19.24;67.18;100458.13;4980520;28;102504;-56
2022/06/09 02:22:50;;;;;;;3.88;3.30;;;;;;;19.25;67.21;100461.69;4992721;28;102240;-55
2022/06/09 02:25:18;;;;;;;3.75;3.03;;;;;;;19.25;66.72;100464.44;4994140;28;104216;-56
2022/06/09 02:27:45;;;;;;;3.88;3.20;;;;;;;19.26;66.78;100469.63;4997320;28;102356;-56
2022/06/09 02:30:12;;;;;;;3.83;3.00;;;;;;;19.24;67.12;100466.41;4994204;28;102451;-56
2022/06/09 02:32:39;;;;;;;3.38;2.70;;;;;;;19.24;67.40;100471.91;4997790;28;102462;-56
2022/06/09 02:35:08;;;;;;;3.55;2.63;;;;;;;19.24;67.02;100463.63;4987164;28;103854;-56
2022/06/09 02:37:35;;;;;;;3.80;2.80;;;;;;;19.24;67.03;100460.06;4986657;28;102399;-56
2022/06/09 02:40:03;;;;;;;4.70;3.22;;;;;;;19.24;67.43;100471.91;4987499;28;102527;-56
2022/06/09 02:42:30;;;;;;;4.30;3.10;;;;;;;19.24;67.49;100474.66;4997624;28;102236;-56
2022/06/09 02:44:56;;;;;;;3.30;2.85;;;;;;;19.24;67.65;100471.91;4995695;28;104009;-56
2022/06/09 02:47:23;;;;;;;5.40;3.00;;;;;;;19.24;67.39;100471.13;4996396;28;102226;-56
2022/06/09 02:49:49;;;;;;;4.40;3.20;;;;;;;19.24;67.47;100466.41;4992622;28;102303;-55
2022/06/09 02:52:17;;;;;;;3.78;3.10;;;;;;;19.24;67.36;100460.06;4996327;28;102588;-56
2022/06/09 02:54:44;;;;;;;4.00;2.72;;;;;;;19.24;67.61;100460.88;4994850;28;103897;-56
2022/06/09 02:57:10;;;;;;;3.25;2.95;;;;;;;19.23;67.22;100470.31;4996812;28;102438;-56
2022/06/09 02:59:37;;;;;;;3.30;3.00;;;;;;;19.24;67.14;100477.44;4994123;28;102363;-56
2022/06/09 03:02:05;;;;;;;4.27;3.40;;;;;;;19.25;66.93;100473.53;4993902;28;102143;-56
2022/06/09 03:04:31;;;;;;;3.85;3.25;;;;;;;19.25;66.74;100473.53;4975650;28;104091;-56
2022/06/09 03:06:58;;;;;;;4.13;2.85;;;;;;;19.27;66.46;100464.94;4976601;28;102429;-56
2022/06/09 03:09:26;;;;;;;4.18;3.00;;;;;;;19.26;67.01;100472.41;4975111;28;102542;-56
2022/06/09 03:11:55;;;;;;;3.78;3.00;;;;;;;19.28;66.94;100472.06;4996824;28;102103;-56
2022/06/09 03:14:22;;;;;;;3.95;3.20;;;;;;;19.29;67.03;100462.63;4992759;28;104181;-55
2022/06/09 03:16:50;;;;;;;5.78;3.20;;;;;;;19.28;67.15;100467.34;4982906;28;102540;-56
2022/06/09 03:19:17;;;;;;;3.45;3.10;;;;;;;19.29;67.25;100463.44;4975148;28;101946;-56
2022/06/09 03:21:44;;;;;;;5.78;2.83;;;;;;;19.30;67.10;100465.06;4976366;28;102226;-55
2022/06/09 03:24:11;;;;;;;4.28;3.10;;;;;;;19.31;67.23;100465.88;4975674;28;103909;-56
2022/06/09 03:26:39;;;;;;;3.35;3.05;;;;;;;19.31;67.15;100477.72;4980694;28;102521;-55
2022/06/09 03:29:06;;;;;;;3.70;3.03;;;;;;;19.32;67.22;100479.31;4985876;28;102932;-55
2022/06/09 03:31:33;;;;;;;5.45;3.30;;;;;;;19.32;67.36;100473.78;4982937;28;102214;-56
2022/06/09 03:33:59;;;;;;;7.88;4.10;;;;;;;19.32;67.41;100479.31;4995025;28;103943;-56
2022/06/09 03:36:26;;;;;;;3.90;2.60;;;;;;;19.33;67.40;100480.94;4995403;28;102687;-56
2022/06/09 03:38:53;;;;;;;3.00;2.70;;;;;;;19.34;67.37;100485.31;4994445;28;102341;-56
2022/06/09 03:41:19;;;;;;;4.93;2.92;;;;;;;19.33;67.73;100480.13;4990101;28;102795;-56
2022/06/09 03:43:47;;;;;;;3.10;2.50;;;;;;;19.35;67.48;100477.84;4994840;28;103914;-55
2022/06/09 03:46:14;;;;;;;3.65;2.90;;;;;;;19.34;67.56;100476.22;4993374;28;102446;-55
2022/06/09 03:48:41;;;;;;;4.18;3.08;;;;;;;19.35;67.67;100477.84;4978423;28;102062;-56
2022/06/09 03:51:11;;;;;;;3.83;3.10;;;;;;;19.34;67.54;100470.72;4977890;28;102244;-59
2022/06/09 03:53:39;;;;;;;3.75;3.17;;;;;;;19.34;67.58;100482.56;4994457;28;104451;-55
2022/06/09 03:56:07;;;;;;;3.47;2.73;;;;;;;19.34;67.66;100482.56;4992767;28;102502;-55
2022/06/09 03:58:33;;;;;;;3.67;3.08;;;;;;;19.35;67.57;100478.66;4992856;28;102545;-55
2022/06/09 04:01:01;;;;;;;3.45;3.15;;;;;;;19.34;67.99;100477.03;4994696;28;102502;-55
2022/06/09 04:03:29;;;;;;;3.10;2.80;;;;;;;19.35;68.00;100473.13;4993544;28;104176;-56
2022/06/09 04:05:56;;;;;;;4.47;3.40;;;;;;;19.35;67.63;100473.13;4985719;28;102586;-55
2022/06/09 04:08:23;;;;;;;5.30;3.25;;;;;;;19.36;67.72;100480.25;4989714;28;102598;-55
2022/06/09 04:10:49;;;;;;;3.78;3.03;;;;;;;19.35;67.68;100478.66;4988273;28;103869;-55
2022/06/09 04:13:17;;;;;;;5.40;3.40;;;;;;;19.36;67.68;100483.00;4989295;28;104085;-55
2022/06/09 04:15:44;;;;;;;5.95;3.53;;;;;;;19.37;67.84;100492.94;4994098;28;102005;-56
2022/06/09 04:18:12;;;;;;;3.35;3.05;;;;;;;19.38;67.46;100489.00;4993957;28;102427;-56
2022/06/09 04:20:40;;;;;;;3.90;3.50;;;;;;;19.38;67.74;100494.53;4996106;28;102192;-56
2022/06/09 04:23:06;;;;;;;4.00;3.60;;;;;;;19.39;67.82;100498.09;4987877;28;104260;-55
2022/06/09 04:25:33;;;;;;;5.32;3.20;;;;;;;19.39;67.51;100496.13;4993406;28;102276;-56
2022/06/09 04:28:00;;;;;;;4.05;3.65;;;;;;;19.40;67.49;100497.78;4993286;28;102296;-56
2022/06/09 04:30:27;;;;;;;3.72;3.42;;;;;;;19.41;67.50;100504.91;4988825;28;102583;-55
2022/06/09 04:32:55;;;;;;;4.63;3.50;;;;;;;19.42;67.45;100502.94;4985019;28;103819;-56
2022/06/09 04:35:23;;;;;;;4.10;3.45;;;;;;;19.43;67.54;100504.56;4977814;28;102161;-56
2022/06/09 04:38:03;;;;;;;4.18;3.78;;;;;;;19.43;67.95;100504.56;4987043;28;103089;-55
2022/06/09 04:40:34;;;;;;;7.20;3.63;;;;;;;19.45;67.49;100510.56;4975413;28;102372;-56
2022/06/09 04:43:01;;;;;;;3.50;3.20;;;;;;;19.45;67.50;100505.03;4983144;28;104320;-56
2022/06/09 04:45:28;;;;;;;4.90;3.60;;;;;;;19.45;67.62;100499.53;4994761;28;102553;-56
2022/06/09 04:47:54;;;;;;;4.00;3.60;;;;;;;19.46;67.69;100501.13;4990865;28;102031;-56
2022/06/09 04:50:23;;;;;;;3.53;3.22;;;;;;;19.48;67.71;100495.28;4995199;28;102209;-56
2022/06/09 04:52:50;;;;;;;4.00;3.60;;;;;;;19.48;67.84;100503.56;4984778;28;104412;-56
2022/06/09 04:55:17;;;;;;;5.30;4.10;;;;;;;19.49;67.56;100496.91;4974671;28;102339;-56
2022/06/09 04:57:44;;;;;;;4.07;3.40;;;;;;;19.50;67.87;100499.31;4976946;28;102305;-56
2022/06/09 05:00:13;;;;;;;6.68;3.53;;;;;;;19.53;67.57;100501.41;4994779;28;102523;-56
2022/06/09 05:02:39;;;;;;;;;;;;;;;19.55;67.81;100495.56;4984890;28;104005;-55
2022/06/09 05:05:07;;;;;;;3.50;3.20;;;;;;;19.56;67.80;100495.22;4994898;28;102352;-56
2022/06/09 05:07:36;;;;;;;3.67;3.38;;;;;;;19.58;67.71;100500.38;4980502;28;102596;-56
2022/06/09 05:10:06;;;;;;;4.13;3.67;;;;;;;19.61;68.18;100485.91;4976008;28;102199;-55
2022/06/09 05:12:33;;;;;;;5.85;3.75;;;;;;;19.62;67.78;100495.81;4987716;28;103949;-56
2022/06/09 05:15:00;;;;;;;3.92;3.25;;;;;;;19.65;67.92;100492.41;4989520;28;104269;-56
2022/06/09 05:17:27;;;;;;;3.55;3.05;;;;;;;19.66;68.06;100489.31;4978730;28;102541;-55
2022/06/09 05:19:53;;;;;;;4.20;3.25;;;;;;;19.69;68.05;100493.34;4993543;28;102465;-56
2022/06/09 05:22:20;;;;;;;7.22;3.35;;;;;;;19.70;67.90;100488.66;4991126;28;104080;-55
2022/06/09 05:24:48;;;;;;;7.15;4.05;;;;;;;19.74;67.33;100489.56;4981279;28;102048;-55
2022/06/09 05:27:14;;;;;;;6.03;3.40;;;;;;;19.74;67.82;100490.38;4982672;28;102164;-55
2022/06/09 05:29:41;;;;;;;4.28;3.30;;;;;;;19.77;67.80;100498.00;4995377;28;102294;-56
2022/06/09 05:32:09;;;;;;;3.97;3.08;;;;;;;19.82;67.62;100497.75;4992940;28;104001;-55
2022/06/09 05:34:35;;;;;;;4.10;3.30;;;;;;;19.84;67.43;100494.69;4981795;28;102120;-55
2022/06/09 05:37:03;;;;;;;7.40;3.33;;;;;;;19.82;67.73;100489.47;4990108;28;102467;-56
2022/06/09 05:45:05;;;;;;;4.90;3.60;;;;;;;19.96;66.64;100496.69;4984211;28;102677;-56
2022/06/09 05:47:33;;;;;;;5.95;2.72;;;;;;;19.96;66.05;100493.91;4989704;28;102433;-55
2022/06/09 05:50:00;;;;;;;6.13;2.95;;;;;;;19.98;66.11;100491.59;4991710;28;102435;-56
2022/06/09 05:52:28;;;;;;;4.57;3.58;;;;;;;20.00;64.78;100492.09;4992992;28;103912;-56
2022/06/09 05:54:56;;;;;;;4.27;2.57;;;;;;;20.05;67.23;100500.16;4991197;28;103287;-55
2022/06/09 05:57:26;;;;;;;6.32;2.97;;;;;;;20.08;66.27;100496.72;4981818;28;102455;-53
2022/06/09 05:59:53;;;;;;;4.20;3.05;;;;;;;20.10;64.54;100509.03;4986338;28;102428;-53
2022/06/09 06:02:23;;;;;;;4.88;3.17;;;;;;;20.13;64.26;100510.31;4978796;28;103923;-53
2022/06/09 06:04:50;;;;;;;4.88;2.72;;;;;;;20.11;65.34;100509.84;4981993;28;102095;-53
2022/06/09 06:07:17;;;;;;;4.45;2.90;;;;;;;20.14;63.10;100525.75;4987433;28;105428;-53
2022/06/09 06:09:43;;;;;;;5.53;2.67;;;;;;;20.19;62.81;100510.91;4994336;28;102364;-53
2022/06/09 06:12:10;;;;;;;4.43;3.08;;;;;;;20.14;64.76;100509.16;4991792;28;103923;-53
2022/06/09 06:14:41;;;;;;;3.28;2.92;;;;;;;20.14;62.77;100515.50;4992824;28;104569;-54
2022/06/09 06:17:10;;;;;;;7.97;2.97;;;;;;;20.12;64.71;100516.97;4994709;28;102471;-54
2022/06/09 06:19:38;;;;;;;6.88;3.20;;;;;;;20.15;66.03;100521.81;4993409;28;102463;-53
2022/06/09 06:22:05;;;;;;;4.95;3.05;;;;;;;20.13;64.67;100524.13;4988518;28;103905;-53
2022/06/09 06:24:31;;;;;;;4.50;3.25;;;;;;;20.15;65.64;100525.38;4992773;28;104662;-53
2022/06/09 06:26:58;;;;;;;4.65;3.20;;;;;;;20.15;65.40;100522.63;4986866;28;102146;-54
2022/06/09 06:29:25;;;;;;;4.80;3.33;;;;;;;20.14;64.51;100525.75;4990133;28;102384;-54
2022/06/09 06:31:53;;;;;;;5.15;2.92;;;;;;;20.12;65.66;100522.50;4995447;28;103844;-53
2022/06/09 06:34:21;;;;;;;3.83;2.80;;;;;;;20.16;65.49;100517.94;4997976;28;102225;-54
2022/06/09 06:36:48;;;;;;;3.83;3.05;;;;;;;20.12;65.74;100516.97;4986073;28;102724;-54
2022/06/09 06:39:15;;;;;;;3.85;3.03;;;;;;;20.17;64.45;100508.47;4990647;28;102401;-54
2022/06/09 06:41:41;;;;;;;4.78;3.30;;;;;;;20.14;65.12;100514.69;4976763;28;104272;-54
2022/06/09 06:44:08;;;;;;;5.30;3.22;;;;;;;20.19;64.44;100516.41;4977812;28;102443;-54
2022/06/09 06:46:35;;;;;;;4.03;3.10;;;;;;;20.15;65.04;100510.78;4977136;28;102154;-54
2022/06/09 06:49:04;;;;;;;4.90;3.28;;;;;;;20.15;66.01;100506.03;4978168;28;102215;-54
2022/06/09 06:51:31;;;;;;;5.18;3.35;;;;;;;20.14;65.62;100518.25;4995425;28;104227;-55
2022/06/09 06:53:58;;;;;;;4.60;3.05;;;;;;;20.16;65.08;100512.41;4997209;28;101953;-55
2022/06/09 06:56:24;;;;;;;3.67;2.88;;;;;;;20.13;66.56;100510.31;4995540;28;102195;-53
2022/06/09 06:58:51;;;;;;;3.42;2.90;;;;;;;20.15;66.42;100502.47;4985564;28;102330;-54
2022/06/09 07:01:18;;;;;;;4.22;2.92;;;;;;;20.13;66.19;100507.56;4995877;28;104169;-54
2022/06/09 07:03:45;;;;;;;6.90;3.20;;;;;;;20.15;66.77;100497.75;4989724;28;102557;-55
2022/06/09 07:06:13;;;;;;;6.28;3.30;;;;;;;20.17;65.53;100500.19;4995952;28;102488;-55
2022/06/09 07:08:40;;;;;;;4.33;3.10;;;;;;;20.18;66.12;100510.09;4997624;28;102507;-54
2022/06/09 07:11:07;;;;;;;6.22;3.15;;;;;;;20.16;66.23;100504.91;4994583;28;104081;-53
2022/06/09 07:13:36;;;;;;;3.70;3.00;;;;;;;20.14;66.56;100504.44;4994672;28;102290;-53
2022/06/09 07:16:03;;;;;;;;;;;;;;;20.13;66.39;100499.28;4983326;28;102418;-54
2022/06/09 07:18:30;;;;;;;5.95;3.45;;;;;;;20.13;66.58;100502.03;4996559;28;102591;-54
2022/06/09 07:20:57;;;;;;;4.20;3.35;;;;;;;20.14;66.28;100503.63;4995414;28;103978;-53
2022/06/09 07:23:26;;;;;;;3.45;3.15;;;;;;;20.10;66.74;100499.94;4996391;28;102431;-54
2022/06/09 07:25:54;;;;;;;3.90;3.17;;;;;;;20.10;66.31;100497.19;4995292;28;102572;-55
2022/06/09 07:28:21;;;;;;;4.13;2.88;;;;;;;20.11;66.50;100501.56;4997266;28;101987;-54
2022/06/09 07:30:47;;;;;;;3.70;2.97;;;;;;;20.09;66.27;100498.34;4982742;28;104111;-54
2022/06/09 07:33:17;;;;;;;3.30;3.00;;;;;;;20.10;66.63;100498.00;4996484;28;102337;-54
2022/06/09 07:35:43;;;;;;;4.72;3.13;;;;;;;20.10;66.57;100502.72;4995232;28;102215;-55
2022/06/09 07:38:11;;;;;;;7.82;3.20;;;;;;;20.11;66.32;100504.31;4997315;28;102378;-54
2022/06/09 07:40:41;;;;;;;4.68;2.85;;;;;;;20.10;66.62;100503.50;4994495;28;104745;-54
2022/06/09 07:43:07;;;;;;;4.40;2.85;;;;;;;20.10;66.56;100509.03;4996509;28;102269;-54
2022/06/09 07:45:35;;;;;;;3.90;2.83;;;;;;;20.11;66.80;100504.31;4994833;28;102420;-54
2022/06/09 07:48:04;;;;;;;3.95;3.15;;;;;;;20.11;66.62;100493.25;4996618;28;102134;-55
2022/06/09 07:50:31;;;;;;;3.58;3.15;;;;;;;20.11;66.41;100501.56;4987331;28;103923;-54
2022/06/09 07:52:58;;;;;;;3.03;2.72;;;;;;;20.14;66.66;100498.13;4978437;28;102297;-54
2022/06/09 07:55:25;;;;;;;3.03;2.70;;;;;;;20.12;66.37;100492.09;4995011;28;102476;-54
2022/06/09 07:57:54;;;;;;;5.53;3.42;;;;;;;20.11;66.51;100490.50;4984228;28;102472;-55
2022/06/09 08:00:21;;;;;;;;;;;;;;;20.13;66.48;100502.03;4991819;28;103884;-55
2022/06/09 08:02:48;;;;;;;3.45;2.65;;;;;;;20.15;66.80;100494.19;4976297;28;102521;-54
2022/06/09 08:05:18;;;;;;;3.83;3.03;;;;;;;20.16;66.83;100495.84;4992024;28;102451;-53
2022/06/09 08:07:45;;;;;;;3.08;2.78;;;;;;;20.16;66.68;100496.63;4996046;28;103684;-55
2022/06/09 08:10:17;;;;;;;3.00;2.70;;;;;;;20.16;66.31;100495.84;4994267;28;103902;-55
2022/06/09 08:12:45;;;;;;;4.30;3.40;;;;;;;20.15;66.47;100494.19;4995345;28;102226;-54
2022/06/09 08:15:15;;;;;;;3.70;2.72;;;;;;;20.17;66.56;100494.66;4993735;28;102564;-54
2022/06/09 08:17:42;;;;;;;3.47;3.00;;;;;;;20.16;66.87;100495.84;4984561;28;102576;-54
2022/06/09 08:20:09;;;;;;;4.75;3.22;;;;;;;20.14;66.14;100492.59;4994342;28;103881;-54
2022/06/09 08:22:43;;;;;;;4.90;3.00;;;;;;;20.16;66.16;100495.84;4995684;28;102427;-54
2022/06/09 08:25:11;;;;;;;5.20;3.40;;;;;;;20.16;66.41;100495.84;4993876;28;102540;-54
2022/06/09 08:27:38;;;;;;;3.08;2.70;;;;;;;20.18;66.11;100504.56;4995867;28;102518;-54
2022/06/09 08:30:08;;;;;;;3.28;2.85;;;;;;;20.19;66.54;100495.13;4993237;28;103842;-55
2022/06/09 08:32:36;;;;;;;3.28;2.85;;;;;;;20.17;66.33;100502.97;4993366;28;102345;-54
2022/06/09 08:35:04;;;;;;;4.50;3.10;;;;;;;20.17;66.15;100500.19;4993808;28;102234;-54
2022/06/09 08:37:31;;;;;;;4.63;3.65;;;;;;;20.16;65.96;100496.63;4988482;28;102840;-56
2022/06/09 08:39:58;;;;;;;3.10;2.80;;;;;;;20.17;66.14;100497.44;4983541;28;104246;-55
2022/06/09 08:42:36;;;;;;;4.30;3.38;;;;;;;20.18;66.33;100499.03;4984926;28;101959;-55
2022/06/09 08:45:08;;;;;;;3.60;2.83;;;;;;;20.16;66.25;100490.31;4994820;28;102285;-55
2022/06/09 08:47:39;;;;;;;3.03;2.72;;;;;;;20.20;66.56;100490.44;4989454;28;102203;-54
2022/06/09 08:50:14;;;;;;;2.90;2.60;;;;;;;20.22;66.50;100502.72;4974163;28;103940;-54
2022/06/09 08:52:48;;;;;;;3.28;2.83;;;;;;;20.22;66.39;100494.44;4975381;28;102009;-54
2022/06/09 08:55:27;;;;;;;3.22;2.75;;;;;;;20.21;66.74;100495.59;4974023;28;102272;-54
2022/06/09 08:57:58;;;;;;;2.80;2.55;;;;;;;20.21;66.13;100490.06;4975290;28;102530;-54
2022/06/09 09:00:29;;;;;;;2.97;2.40;;;;;;;20.24;66.26;100492.16;4974260;28;104084;-54
2022/06/09 09:03:03;;;;;;;4.43;2.70;;;;;;;20.25;66.27;100499.28;4975186;28;102365;-55
2022/06/09 09:05:35;;;;;;;2.95;2.65;;;;;;;20.23;66.61;100501.59;4974552;28;102030;-55
2022/06/09 09:08:04;;;;;;;3.30;2.72;;;;;;;20.21;66.40;100494.78;4993737;28;102318;-55
2022/06/09 09:10:40;;;;;;;3.72;2.55;;;;;;;20.24;65.91;100503.22;4993818;28;103886;-54
2022/06/09 09:13:22;;;;;;;3.83;2.88;;;;;;;20.23;66.15;100496.06;4995025;28;102488;-54
2022/06/09 09:15:53;;;;;;;2.95;2.72;;;;;;;20.25;66.32;100512.31;4978691;28;102272;-54
2022/06/09 09:18:35;;;;;;;6.75;2.25;;;;;;;20.26;66.91;100506.41;4988025;28;102570;-54
2022/06/09 09:21:25;;;;;;;2.70;2.45;;;;;;;20.25;66.39;100510.34;4974348;28;107962;-54
2022/06/09 09:24:00;;;;;;;3.83;2.60;;;;;;;20.26;66.56;100509.19;4988184;28;102173;-54
2022/06/09 09:26:46;;;;;;;3.15;2.50;;;;;;;20.26;66.73;100511.94;4991192;28;102985;-54
2022/06/09 09:29:22;;;;;;;2.70;2.35;;;;;;;20.25;66.02;100524.16;4983985;28;103875;-54
2022/06/09 09:31:54;;;;;;;2.30;2.10;;;;;;;20.27;66.82;100519.13;4980415;28;103904;-54
2022/06/09 09:34:24;;;;;;;3.38;2.00;;;;;;;20.30;66.33;100521.19;4988851;28;102411;-55
2022/06/09 09:36:57;;;;;;;2.75;2.53;;;;;;;20.31;66.35;100520.03;4994971;28;102383;-54
2022/06/09 09:39:34;;;;;;;2.67;2.47;;;;;;;20.24;66.31;100519.00;4982166;28;102206;-55
2022/06/09 09:42:13;;;;;;;3.85;2.63;;;;;;;20.25;67.04;100510.34;4989717;28;103980;-54
2022/06/09 09:44:40;;;;;;;2.53;2.33;;;;;;;20.25;66.64;100509.53;4993564;28;102603;-54
2022/06/09 09:47:25;;;;;;;2.58;2.17;;;;;;;20.25;66.51;100504.00;4996750;28;102162;-53
2022/06/09 09:50:00;;;;;;;4.53;2.05;;;;;;;20.23;66.13;100506.28;4987010;28;102162;-53
2022/06/09 09:52:37;;;;;;;3.15;2.45;;;;;;;20.23;66.66;100501.59;4996564;28;108221;-54
2022/06/09 09:55:20;;;;;;;2.42;2.22;;;;;;;20.25;66.50;100504.81;4998134;28;102529;-55
2022/06/09 09:57:49;;;;;;;2.50;2.30;;;;;;;20.23;66.55;100507.13;4992600;28;102259;-55
2022/06/09 10:00:26;;;;;;;2.47;2.27;;;;;;;20.22;66.43;100504.69;4983997;28;102113;-55
2022/06/09 10:08:44;;;;;;;3.15;2.30;;;;;;;20.24;66.73;100496.88;4996853;28;102003;-55
2022/06/09 10:14:16;;;;;;;2.25;1.95;;;;;;;20.20;66.40;100485.69;4993568;28;103896;-55
2022/06/09 10:16:50;;;;;;;4.60;2.20;;;;;;;20.20;66.29;100484.91;4992255;28;102341;-55
2022/06/09 10:19:21;;;;;;;2.30;2.10;;;;;;;20.17;66.11;100476.13;4992960;28;102143;-54
2022/06/09 10:21:52;;;;;;;2.53;2.33;;;;;;;20.18;65.96;100474.16;4997333;28;102499;-54
2022/06/09 10:24:23;;;;;;;2.50;2.30;;;;;;;20.17;66.31;100476.13;4993782;28;103892;-54
2022/06/09 10:26:54;;;;;;;2.40;2.20;;;;;;;20.19;66.33;100464.72;4997587;28;102182;-53
2022/06/09 10:29:27;;;;;;;2.83;2.10;;;;;;;20.18;66.46;100465.88;4998637;28;102195;-54
2022/06/09 10:32:01;;;;;;;2.50;2.22;;;;;;;20.17;65.88;100469.81;4998181;28;102294;-55
2022/06/09 10:34:36;;;;;;;3.15;2.13;;;;;;;20.17;66.00;100475.34;4996073;28;103997;-54
2022/06/09 10:37:15;;;;;;;2.75;2.55;;;;;;;20.15;66.39;100466.56;4989181;28;102188;-54
2022/06/09 10:39:49;;;;;;;3.40;2.20;;;;;;;20.18;64.71;100474.16;4986895;28;102507;-53
2022/06/09 10:42:25;;;;;;;2.47;2.28;;;;;;;20.18;65.79;100465.88;4993816;28;102112;-54
2022/06/09 10:45:05;;;;;;;3.78;2.20;;;;;;;20.14;66.13;100476.00;4976643;28;104057;-54
2022/06/09 10:56:18;;;;;;;2.50;2.30;;;;;;;20.09;65.90;100462.44;4996908;28;104028;-55
2022/06/09 10:58:53;;;;;;;2.22;2.03;;;;;;;20.11;66.10;100460.13;4993055;28;102265;-55
2022/06/09 11:01:25;;;;;;;2.08;1.88;;;;;;;20.14;66.33;100462.19;4996920;28;102084;-55
2022/06/09 11:03:52;;;;;;;2.50;2.30;;;;;;;20.11;66.19;100451.81;4994624;28;102383;-54
2022/06/09 11:06:29;;;;;;;3.92;2.38;;;;;;;20.07;66.15;100454.47;4993814;28;103940;-55
2022/06/09 11:09:07;;;;;;;2.65;2.42;;;;;;;20.08;66.25;100450.53;4993354;28;101972;-55
2022/06/09 11:11:47;;;;;;;2.60;2.40;;;;;;;20.10;66.11;100461.28;4993476;28;102251;-55
2022/06/09 11:14:32;;;;;;;2.53;2.33;;;;;;;20.05;65.94;100456.78;4998320;28;102157;-55
2022/06/09 11:17:18;;;;;;;3.35;2.75;;;;;;;20.06;66.13;100463.09;4993534;28;104032;-53
2022/06/09 11:19:58;;;;;;;2.75;2.55;;;;;;;20.09;66.19;100451.38;4994057;28;102189;-54
2022/06/09 11:22:35;;;;;;;2.00;1.90;;;;;;;20.07;66.17;100448.94;4996676;28;102364;-55
2022/06/09 11:25:20;;;;;;;3.78;2.17;;;;;;;20.07;65.95;100453.66;4997033;28;102115;-54
2022/06/09 11:27:56;;;;;;;2.65;2.45;;;;;;;20.06;66.08;100441.81;4994904;28;103849;-54
2022/06/09 11:30:31;;;;;;;2.90;2.70;;;;;;;20.06;66.03;100446.53;4984030;28;102207;-54
2022/06/09 11:33:12;;;;;;;2.30;2.20;;;;;;;20.04;66.01;100427.53;4991884;28;101814;-54
2022/06/09 11:35:49;;;;;;;2.92;2.47;;;;;;;20.03;66.16;100436.16;4979976;28;102536;-54
2022/06/09 11:38:41;;;;;;;2.60;2.40;;;;;;;20.01;65.95;100428.19;4986790;28;106953;-54
2022/06/09 11:41:20;;;;;;;2.55;2.35;;;;;;;20.00;66.02;100436.84;4988043;28;102039;-54
2022/06/09 11:44:02;;;;;;;2.63;2.40;;;;;;;20.00;66.23;100436.84;4990774;28;102212;-54
2022/06/09 11:46:32;;;;;;;2.70;2.40;;;;;;;20.01;66.16;100424.63;4995894;28;103223;-54
2022/06/09 11:49:04;;;;;;;2.80;2.60;;;;;;;20.02;65.99;100440.09;4974636;28;103899;-56
2022/06/09 11:51:33;;;;;;;2.25;2.10;;;;;;;20.01;66.04;100442.00;4982007;28;102315;-54
2022/06/09 11:54:02;;;;;;;2.60;2.40;;;;;;;20.04;66.36;100432.25;4989229;28;102390;-54